createdAt,value
2018-07-20T00:00:08.782Z,8.33
2018-07-20T00:02:38.172Z,8.17
2018-07-20T00:05:07.803Z,8.50
2018-07-20T00:07:37.321Z,8.73
2018-07-20T00:10:06.796Z,9.60
2018-07-20T00:12:36.472Z,8.50
2018-07-20T00:15:06.032Z,8.00
2018-07-20T00:17:35.569Z,8.50
2018-07-20T00:20:05.691Z,8.13
2018-07-20T00:22:35.331Z,7.73
2018-07-20T00:25:04.935Z,7.83
2018-07-20T00:27:34.527Z,7.93
2018-07-20T00:30:04.331Z,9.17
2018-07-20T00:32:33.828Z,7.87
2018-07-20T00:35:03.309Z,7.80
2018-07-20T00:37:32.742Z,8.23
2018-07-20T00:40:02.187Z,7.80
2018-07-20T00:42:31.871Z,8.80
2018-07-20T00:45:00.982Z,8.80
2018-07-20T00:47:30.296Z,9.23
2018-07-20T00:49:59.948Z,8.33
2018-07-20T00:52:29.630Z,8.67
2018-07-20T00:54:59.101Z,8.97
2018-07-20T00:57:28.583Z,8.50
2018-07-20T00:59:57.942Z,9.50
2018-07-20T01:02:27.431Z,9.50
2018-07-20T01:04:56.822Z,9.70
2018-07-20T01:07:26.379Z,9.50
2018-07-20T01:09:55.966Z,9.33
2018-07-20T01:12:25.339Z,9.37
2018-07-20T01:14:54.732Z,9.93
2018-07-20T01:17:24.107Z,9.10
2018-07-20T01:19:53.563Z,11.03
2018-07-20T01:22:23.111Z,10.40
2018-07-20T01:24:52.685Z,11.10
2018-07-20T01:27:22.304Z,11.17
2018-07-20T01:29:51.714Z,10.57
2018-07-20T01:32:21.112Z,10.10
2018-07-20T01:34:50.658Z,9.60
2018-07-20T01:37:19.691Z,10.57
2018-07-20T01:39:49.063Z,9.43
2018-07-20T01:42:18.779Z,9.93
2018-07-20T01:44:48.269Z,10.13
2018-07-20T01:47:17.583Z,10.57
2018-07-20T01:49:47.003Z,10.77
2018-07-20T01:52:16.517Z,11.30
2018-07-20T01:54:45.939Z,10.50
2018-07-20T01:57:15.268Z,12.30
2018-07-20T01:59:45.081Z,12.43
2018-07-20T02:02:14.712Z,12.33
2018-07-20T02:04:44.547Z,12.23
2018-07-20T02:07:13.879Z,11.63
2018-07-20T02:09:43.338Z,10.73
2018-07-20T02:12:12.725Z,12.80
2018-07-20T02:14:42.272Z,10.87
2018-07-20T02:17:11.915Z,11.00
2018-07-20T02:19:41.367Z,11.20
2018-07-20T02:22:10.770Z,11.13
2018-07-20T02:24:40.378Z,11.20
2018-07-20T02:27:09.897Z,11.73
2018-07-20T02:29:39.435Z,10.93
2018-07-20T02:32:08.854Z,11.53
2018-07-20T02:34:38.361Z,11.50
2018-07-20T02:37:08.145Z,11.90
2018-07-20T02:39:37.617Z,11.33
2018-07-20T02:42:07.155Z,12.93
2018-07-20T02:44:36.865Z,12.00
2018-07-20T02:47:06.712Z,11.77
2018-07-20T02:49:36.364Z,11.83
2018-07-20T02:52:05.837Z,12.53
2018-07-20T02:54:35.259Z,11.70
2018-07-20T02:57:04.775Z,11.93
2018-07-20T02:59:34.245Z,10.73
2018-07-20T03:02:04.038Z,13.17
2018-07-20T03:04:33.450Z,11.87
2018-07-20T03:07:03.064Z,12.07
2018-07-20T03:09:32.503Z,11.80
2018-07-20T03:12:01.808Z,11.53
2018-07-20T03:14:31.096Z,11.70
2018-07-20T03:17:00.619Z,11.77
2018-07-20T03:19:29.980Z,11.67
2018-07-20T03:21:59.486Z,11.73
2018-07-20T03:24:28.776Z,11.60
2018-07-20T03:26:58.142Z,12.37
2018-07-20T03:29:27.579Z,12.10
2018-07-20T03:31:56.930Z,12.03
2018-07-20T03:34:26.307Z,11.80
2018-07-20T03:36:55.602Z,12.10
2018-07-20T03:39:25.023Z,13.13
2018-07-20T03:41:54.360Z,12.40
2018-07-20T03:44:23.762Z,11.20
2018-07-20T03:46:52.859Z,13.10
2018-07-20T03:49:22.355Z,13.40
2018-07-20T03:51:51.667Z,13.23
2018-07-20T03:54:21.182Z,12.77
2018-07-20T03:56:50.584Z,13.13
2018-07-20T03:59:20.158Z,12.90
2018-07-20T04:01:49.414Z,13.10
2018-07-20T04:04:18.738Z,13.57
2018-07-20T04:06:48.040Z,12.80
2018-07-20T04:09:17.419Z,12.77
2018-07-20T04:11:46.855Z,13.60
2018-07-20T04:14:16.191Z,12.97
2018-07-20T04:16:45.666Z,13.10
2018-07-20T04:19:14.986Z,13.10
2018-07-20T04:21:44.387Z,12.23
2018-07-20T04:24:14.019Z,13.20
2018-07-20T04:26:43.429Z,13.90
2018-07-20T04:29:12.759Z,14.20
2018-07-20T04:31:42.057Z,13.83
2018-07-20T04:34:11.387Z,13.40
2018-07-20T04:36:40.772Z,13.20
2018-07-20T04:39:12.802Z,13.77
2018-07-20T04:41:42.967Z,12.10
2018-07-20T04:44:12.387Z,11.80
2018-07-20T04:46:41.823Z,12.20
2018-07-20T04:49:11.259Z,11.97
2018-07-20T04:51:40.878Z,13.07
2018-07-20T04:54:10.293Z,11.97
2018-07-20T04:56:39.478Z,11.77
2018-07-20T04:59:08.976Z,11.70
2018-07-20T05:01:38.802Z,11.20
2018-07-20T05:04:08.496Z,11.73
2018-07-20T05:06:37.896Z,11.03
2018-07-20T05:09:09.243Z,11.00
2018-07-20T05:11:39.332Z,11.00
2018-07-20T05:27:08.158Z,10.57
2018-07-20T05:29:37.646Z,10.70
2018-07-20T05:32:07.054Z,12.67
2018-07-20T05:34:36.558Z,11.67
2018-07-20T05:37:06.056Z,13.23
2018-07-20T05:39:35.499Z,12.00
2018-07-20T05:42:04.903Z,12.10
2018-07-20T05:44:34.369Z,12.20
2018-07-20T05:47:03.823Z,11.33
2018-07-20T05:49:33.689Z,12.20
2018-07-20T05:52:03.111Z,12.20
2018-07-20T05:54:32.599Z,11.57
2018-07-20T05:57:01.891Z,11.27
2018-07-20T05:59:31.303Z,11.33
2018-07-20T06:02:00.831Z,11.43
2018-07-20T06:04:30.419Z,10.50
2018-07-20T06:07:00.104Z,10.13
2018-07-20T06:09:29.746Z,10.50
2018-07-20T06:11:59.595Z,10.53
2018-07-20T06:14:29.301Z,9.37
2018-07-20T06:16:58.934Z,9.13
2018-07-20T06:19:28.597Z,8.57
2018-07-20T06:21:57.923Z,9.37
2018-07-20T06:24:27.566Z,8.80
2018-07-20T06:26:56.944Z,9.10
2018-07-20T06:29:26.295Z,7.73
2018-07-20T06:31:55.667Z,8.60
2018-07-20T06:34:25.227Z,8.00
2018-07-20T06:36:54.671Z,8.40
2018-07-20T06:39:24.124Z,8.03
2018-07-20T06:41:53.551Z,7.93
2018-07-20T06:44:23.276Z,7.20
2018-07-20T06:46:52.995Z,7.50
2018-07-20T06:49:22.472Z,7.47
2018-07-20T06:51:52.238Z,6.70
2018-07-20T06:54:21.921Z,7.20
2018-07-20T06:56:51.337Z,8.30
2018-07-20T06:59:20.731Z,7.20
2018-07-20T07:01:50.558Z,6.20
2018-07-20T07:04:19.911Z,6.40
2018-07-20T07:06:49.303Z,6.53
2018-07-20T07:09:19.076Z,6.77
2018-07-20T07:11:48.468Z,6.00
2018-07-20T07:14:23.100Z,6.10
2018-07-20T07:16:52.768Z,6.50
2018-07-20T07:19:28.887Z,5.90
2018-07-20T07:21:59.306Z,6.50
2018-07-20T07:24:28.768Z,6.97
2018-07-20T07:26:58.241Z,6.43
2018-07-20T07:29:28.307Z,6.57
2018-07-20T07:31:58.161Z,6.17
2018-07-20T07:34:27.501Z,5.90
2018-07-20T07:36:56.872Z,6.00
2018-07-20T07:39:26.351Z,6.17
2018-07-20T07:41:55.786Z,6.60
2018-07-20T07:44:25.138Z,6.70
2018-07-20T07:46:55.376Z,6.40
2018-07-20T07:49:24.817Z,6.90
2018-07-20T07:51:54.046Z,6.57
2018-07-20T07:54:23.516Z,6.50
2018-07-20T07:56:52.878Z,5.83
2018-07-20T07:59:22.591Z,6.63
2018-07-20T08:01:51.942Z,6.50
2018-07-20T08:04:21.639Z,6.43
2018-07-20T08:06:50.998Z,6.77
2018-07-20T08:09:20.496Z,6.57
2018-07-20T08:11:49.965Z,6.23
2018-07-20T08:14:19.384Z,6.67
2018-07-20T08:16:48.862Z,6.10
2018-07-20T08:19:18.211Z,5.47
2018-07-20T08:21:47.588Z,5.60
2018-07-20T08:24:16.935Z,5.60
2018-07-20T08:26:46.449Z,4.97
2018-07-20T08:29:15.995Z,5.20
2018-07-20T08:31:45.655Z,5.30
2018-07-20T08:34:15.033Z,5.00
2018-07-20T08:36:44.628Z,5.60
2018-07-20T08:39:14.153Z,5.10
2018-07-20T08:41:43.691Z,5.43
2018-07-20T08:44:13.099Z,4.80
2018-07-20T08:46:42.445Z,5.23
2018-07-20T08:49:11.803Z,5.00
2018-07-20T08:51:41.202Z,5.30
2018-07-20T08:54:10.761Z,5.03
2018-07-20T08:56:40.142Z,4.87
2018-07-20T08:59:09.588Z,4.80
2018-07-20T09:01:39.197Z,5.50
2018-07-20T09:04:08.722Z,4.80
2018-07-20T09:06:38.259Z,4.97
2018-07-20T09:09:08.950Z,4.53
2018-07-20T09:11:38.574Z,4.80
2018-07-20T09:14:08.146Z,4.67
2018-07-20T09:16:37.446Z,5.00
2018-07-20T09:19:07.138Z,4.90
2018-07-20T09:21:36.463Z,4.10
2018-07-20T09:24:06.056Z,4.37
2018-07-20T09:26:35.536Z,4.47
2018-07-20T09:29:05.099Z,4.87
2018-07-20T09:31:34.342Z,5.13
2018-07-20T09:34:03.782Z,4.60
2018-07-20T09:36:33.038Z,4.63
2018-07-20T09:39:02.641Z,4.70
2018-07-20T09:41:31.982Z,4.90
2018-07-20T09:44:01.534Z,4.37
2018-07-20T09:46:30.820Z,5.10
2018-07-20T09:49:00.357Z,5.00
2018-07-20T09:51:29.694Z,4.80
2018-07-20T09:53:59.247Z,4.90
2018-07-20T09:56:28.729Z,5.07
2018-07-20T09:58:58.057Z,5.67
2018-07-20T10:01:27.708Z,5.10
2018-07-20T10:03:57.148Z,5.20
2018-07-20T10:06:26.575Z,4.87
2018-07-20T10:08:56.093Z,5.10
2018-07-20T10:11:29.437Z,5.27
2018-07-20T10:13:58.979Z,4.87
2018-07-20T10:16:28.504Z,5.10
2018-07-20T10:18:58.161Z,5.07
2018-07-20T10:21:27.731Z,5.23
2018-07-20T10:23:57.143Z,5.50
2018-07-20T10:26:26.602Z,5.60
2018-07-20T10:28:56.068Z,5.40
2018-07-20T10:31:25.466Z,5.50
2018-07-20T10:33:54.992Z,5.30
2018-07-20T10:36:24.327Z,5.00
2018-07-20T10:38:53.777Z,5.90
2018-07-20T10:41:23.118Z,5.53
2018-07-20T10:43:52.451Z,5.63
2018-07-20T10:46:21.812Z,5.27
2018-07-20T10:48:51.268Z,5.73
2018-07-20T10:51:20.665Z,5.70
2018-07-20T10:53:49.648Z,6.07
2018-07-20T10:56:18.973Z,5.17
2018-07-20T10:58:48.268Z,5.40
2018-07-20T11:01:17.623Z,5.77
2018-07-20T11:03:47.081Z,5.50
2018-07-20T11:06:16.397Z,5.43
2018-07-20T11:08:48.660Z,5.30
2018-07-20T11:11:18.210Z,6.20
2018-07-20T11:13:47.860Z,5.23
2018-07-20T11:16:17.205Z,5.63
2018-07-20T11:18:46.675Z,5.90
2018-07-20T11:21:16.084Z,6.37
2018-07-20T11:23:45.582Z,6.07
2018-07-20T11:26:14.991Z,5.90
2018-07-20T11:28:44.334Z,6.23
2018-07-20T11:31:13.921Z,6.00
2018-07-20T11:33:43.370Z,6.20
2018-07-20T11:36:12.914Z,6.80
2018-07-20T11:38:44.538Z,6.43
2018-07-20T11:41:14.240Z,6.53
2018-07-20T11:43:43.710Z,6.20
2018-07-20T11:46:13.122Z,6.57
2018-07-20T11:48:42.571Z,6.13
2018-07-20T11:51:12.046Z,6.53
2018-07-20T11:53:41.458Z,6.60
2018-07-20T11:56:10.939Z,6.83
2018-07-20T11:58:40.436Z,6.70
2018-07-20T12:01:09.892Z,7.53
2018-07-20T12:03:39.373Z,7.17
2018-07-20T12:06:08.806Z,6.70
2018-07-20T12:08:38.292Z,6.70
2018-07-20T12:11:07.725Z,6.80
2018-07-20T12:13:37.442Z,6.20
2018-07-20T12:16:06.795Z,6.53
2018-07-20T12:18:36.233Z,7.10
2018-07-20T12:21:05.702Z,7.10
2018-07-20T12:23:35.524Z,6.50
2018-07-20T12:26:04.958Z,6.30
2018-07-20T12:28:34.422Z,6.70
2018-07-20T12:31:03.740Z,7.57
2018-07-20T12:33:33.287Z,7.13
2018-07-20T12:36:03.103Z,6.93
2018-07-20T12:38:32.423Z,6.80
2018-07-20T12:41:02.087Z,7.00
2018-07-20T12:43:31.503Z,6.77
2018-07-20T12:46:00.866Z,6.30
2018-07-20T12:48:30.227Z,6.43
2018-07-20T12:50:59.667Z,6.67
2018-07-20T12:53:29.282Z,5.70
2018-07-20T12:55:58.254Z,7.37
2018-07-20T12:58:27.628Z,6.70
2018-07-20T13:00:56.885Z,7.90
2018-07-20T13:03:26.272Z,6.67
2018-07-20T13:05:55.730Z,6.50
2018-07-20T13:08:25.106Z,6.53
2018-07-20T13:10:54.391Z,6.50
2018-07-20T13:13:23.790Z,6.27
2018-07-20T13:15:53.406Z,6.10
2018-07-20T13:18:22.753Z,6.00
2018-07-20T13:20:52.145Z,6.20
2018-07-20T13:23:21.682Z,6.43
2018-07-20T13:25:51.068Z,5.97
2018-07-20T13:28:20.483Z,6.30
2018-07-20T13:30:49.841Z,6.43
2018-07-20T13:33:19.352Z,7.17
2018-07-20T13:35:48.771Z,6.60
2018-07-20T13:38:18.086Z,6.67
2018-07-20T13:40:47.521Z,6.70
2018-07-20T13:43:16.907Z,6.43
2018-07-20T13:45:46.211Z,6.07
2018-07-20T13:48:15.645Z,6.27
2018-07-20T13:50:44.892Z,6.97
2018-07-20T13:53:14.525Z,6.87
2018-07-20T13:55:43.923Z,6.80
2018-07-20T13:58:13.284Z,6.90
2018-07-20T14:00:42.612Z,7.33
2018-07-20T14:03:12.017Z,6.77
2018-07-20T14:05:41.562Z,7.37
2018-07-20T14:08:10.890Z,6.93
2018-07-20T14:10:40.351Z,7.10
2018-07-20T14:13:09.685Z,7.80
2018-07-20T14:15:39.090Z,7.60
2018-07-20T14:18:08.775Z,7.57
2018-07-20T14:20:38.084Z,7.90
2018-07-20T14:23:07.354Z,6.40
2018-07-20T14:25:36.833Z,6.70
2018-07-20T14:28:06.236Z,5.93
2018-07-20T14:30:35.664Z,6.67
2018-07-20T14:33:05.128Z,5.90
2018-07-20T14:35:34.706Z,6.30
2018-07-20T14:38:04.106Z,5.70
2018-07-20T14:40:33.539Z,5.80
2018-07-20T14:43:02.681Z,5.70
2018-07-20T14:45:32.087Z,5.73
2018-07-20T14:48:01.717Z,6.20
2018-07-20T14:50:31.055Z,5.93
2018-07-20T14:53:00.600Z,5.80
2018-07-20T14:55:29.967Z,5.57
2018-07-20T14:57:59.845Z,6.13
2018-07-20T15:00:29.202Z,5.33
2018-07-20T15:02:58.784Z,4.70
2018-07-20T15:05:28.245Z,5.87
2018-07-20T15:07:57.810Z,5.40
2018-07-20T15:10:27.295Z,5.73
2018-07-20T15:12:56.917Z,5.70
2018-07-20T15:15:26.492Z,5.43
2018-07-20T15:17:55.961Z,5.90
2018-07-20T15:20:25.677Z,5.40
2018-07-20T15:22:55.282Z,5.40
2018-07-20T15:25:24.787Z,5.60
2018-07-20T15:27:54.450Z,6.30
2018-07-20T15:30:24.005Z,6.57
2018-07-20T15:32:53.408Z,6.77
2018-07-20T15:35:23.104Z,6.23
2018-07-20T15:37:52.480Z,6.40
2018-07-20T15:40:21.952Z,7.00
2018-07-20T15:42:51.575Z,6.63
2018-07-20T15:45:21.066Z,6.90
2018-07-20T15:47:50.431Z,6.87
2018-07-20T15:50:19.991Z,7.40
2018-07-20T15:55:18.755Z,7.23
2018-07-20T15:57:48.188Z,7.27
2018-07-20T16:00:17.564Z,8.10
2018-07-20T16:02:46.898Z,9.23
2018-07-20T16:05:16.472Z,9.20
2018-07-20T16:07:45.857Z,8.90
2018-07-20T16:10:15.219Z,8.50
2018-07-20T16:12:44.649Z,8.80
2018-07-20T16:15:14.239Z,9.80
2018-07-20T16:17:43.610Z,10.10
2018-07-20T16:20:12.949Z,9.10
2018-07-20T16:22:42.375Z,9.40
2018-07-20T16:25:11.720Z,9.47
2018-07-20T16:27:41.402Z,9.73
2018-07-20T16:30:10.785Z,10.07
2018-07-20T16:32:40.145Z,10.07
2018-07-20T16:35:09.664Z,8.30
2018-07-20T16:37:39.360Z,8.87
2018-07-20T16:40:08.656Z,9.50
2018-07-20T16:42:38.003Z,9.07
2018-07-20T16:45:07.665Z,9.10
2018-07-20T16:47:37.079Z,9.40
2018-07-20T16:50:06.812Z,9.63
2018-07-20T16:52:36.172Z,8.97
2018-07-20T16:55:05.567Z,9.30
2018-07-20T16:57:35.036Z,9.00
2018-07-20T17:00:05.041Z,9.47
2018-07-20T17:02:34.930Z,8.57
2018-07-20T17:05:04.484Z,8.63
2018-07-20T17:07:34.036Z,8.80
2018-07-20T17:10:03.504Z,9.07
2018-07-20T17:12:32.637Z,9.10
2018-07-20T17:15:01.958Z,9.00
2018-07-20T17:17:31.322Z,9.40
2018-07-20T17:20:00.903Z,9.03
2018-07-20T17:22:29.977Z,8.80
2018-07-20T17:24:59.558Z,9.20
2018-07-20T17:27:29.022Z,9.17
2018-07-20T17:29:58.509Z,9.00
2018-07-20T17:32:28.218Z,8.93
2018-07-20T17:34:57.765Z,9.80
2018-07-20T17:37:27.298Z,8.70
2018-07-20T17:39:56.819Z,9.03
2018-07-20T17:42:26.338Z,8.90
2018-07-20T17:44:55.739Z,8.40
2018-07-20T17:47:25.548Z,8.63
2018-07-20T17:49:54.916Z,8.37
2018-07-20T17:52:24.362Z,8.27
2018-07-20T17:54:54.111Z,8.20
2018-07-20T17:57:23.815Z,7.90
2018-07-20T17:59:53.507Z,7.87
2018-07-20T18:02:22.943Z,8.40
2018-07-20T18:04:52.864Z,8.20
2018-07-20T18:07:22.336Z,8.10
2018-07-20T18:09:51.806Z,8.93
2018-07-20T18:12:21.549Z,9.10
2018-07-20T18:14:50.919Z,10.27
2018-07-20T18:17:19.950Z,11.47
2018-07-20T18:19:50.105Z,9.70
2018-07-20T18:22:19.606Z,9.83
2018-07-20T18:24:48.982Z,9.50
2018-07-20T18:27:18.727Z,9.77
2018-07-20T18:29:48.058Z,10.27
2018-07-20T18:32:18.971Z,10.10
2018-07-20T18:34:48.650Z,8.80
2018-07-20T18:37:18.281Z,9.23
2018-07-20T18:39:47.828Z,9.20
2018-07-20T18:42:17.408Z,8.93
2018-07-20T18:44:46.554Z,8.20
2018-07-20T18:47:16.364Z,8.10
2018-07-20T18:49:46.381Z,8.93
2018-07-20T18:52:15.822Z,9.17
2018-07-20T18:54:45.080Z,8.30
2018-07-20T18:57:14.600Z,9.53
2018-07-20T18:59:44.199Z,9.40
2018-07-20T19:02:13.823Z,9.20
2018-07-20T19:04:43.156Z,9.23
2018-07-20T19:07:12.687Z,8.83
2018-07-20T19:09:42.044Z,9.17
2018-07-20T19:12:11.701Z,9.30
2018-07-20T19:14:41.149Z,9.00
2018-07-20T19:17:10.740Z,9.33
2018-07-20T19:19:40.191Z,9.57
2018-07-20T19:22:09.724Z,9.23
2018-07-20T19:24:39.034Z,9.07
2018-07-20T19:27:08.355Z,9.63
2018-07-20T19:29:37.708Z,9.03
2018-07-20T19:32:07.124Z,9.03
2018-07-20T19:34:36.427Z,11.20
2018-07-20T19:37:06.035Z,9.73
2018-07-20T19:39:35.473Z,9.60
2018-07-20T19:42:04.943Z,10.17
2018-07-20T19:44:35.169Z,9.27
2018-07-20T19:47:04.583Z,8.87
2018-07-20T19:49:33.964Z,8.80
2018-07-20T19:52:03.464Z,9.00
2018-07-20T19:54:32.866Z,8.80
2018-07-20T19:57:02.354Z,7.40
2018-07-20T19:59:31.866Z,7.40
2018-07-20T20:02:01.257Z,8.17
2018-07-20T20:04:30.627Z,7.70
2018-07-20T20:06:59.972Z,7.73
2018-07-20T20:09:29.638Z,7.10
2018-07-20T20:11:59.064Z,7.70
2018-07-20T20:14:28.671Z,7.80
2018-07-20T20:16:58.144Z,8.33
2018-07-20T20:19:30.282Z,7.33
2018-07-20T20:21:59.895Z,7.43
2018-07-20T20:24:29.355Z,7.50
2018-07-20T20:26:58.704Z,8.40
2018-07-20T20:29:28.149Z,8.43
2018-07-20T20:31:57.950Z,7.90
2018-07-20T20:34:28.319Z,7.43
2018-07-20T20:36:57.744Z,7.80
2018-07-20T20:39:27.242Z,7.67
2018-07-20T20:41:56.692Z,8.33
2018-07-20T20:44:26.494Z,8.00
2018-07-20T20:46:55.861Z,8.13
2018-07-20T20:49:25.397Z,7.60
2018-07-20T20:51:54.929Z,7.27
2018-07-20T20:54:24.231Z,8.00
2018-07-20T20:56:53.802Z,7.30
2018-07-20T20:59:23.318Z,7.17
2018-07-20T21:01:52.667Z,6.90
2018-07-20T21:04:22.153Z,6.70
2018-07-20T21:06:51.609Z,6.43
2018-07-20T21:09:21.255Z,7.20
2018-07-20T21:11:50.853Z,6.50
2018-07-20T21:14:20.598Z,6.80
2018-07-20T21:16:50.043Z,6.53
2018-07-20T21:19:19.481Z,7.43
2018-07-20T21:21:48.939Z,6.27
2018-07-20T21:24:18.437Z,6.90
2018-07-20T21:26:47.735Z,7.00
2018-07-20T21:29:17.171Z,6.30
2018-07-20T21:31:46.759Z,6.77
2018-07-20T21:34:16.075Z,6.70
2018-07-20T21:36:45.544Z,6.40
2018-07-20T21:39:15.046Z,6.40
2018-07-20T21:41:44.856Z,6.50
2018-07-20T21:44:14.290Z,6.10
2018-07-20T21:46:44.002Z,6.70
2018-07-20T21:49:13.348Z,7.00
2018-07-20T21:51:42.844Z,6.23
2018-07-20T21:54:12.195Z,6.80
2018-07-20T21:56:41.728Z,6.33
2018-07-20T21:59:11.245Z,6.60
2018-07-20T22:01:40.784Z,6.70
2018-07-20T22:04:10.268Z,5.73
2018-07-20T22:06:39.876Z,7.53
2018-07-20T22:09:11.578Z,6.90
2018-07-20T22:11:41.387Z,6.70
2018-07-20T22:14:11.151Z,6.10
2018-07-20T22:16:40.695Z,6.43
2018-07-20T22:19:10.131Z,7.07
2018-07-20T22:21:39.342Z,7.30
2018-07-20T22:24:08.896Z,6.50
2018-07-20T22:26:38.419Z,6.83
2018-07-20T22:29:07.935Z,7.13
2018-07-20T22:31:37.656Z,6.83
2018-07-20T22:34:07.099Z,7.00
2018-07-20T22:36:36.575Z,7.03
2018-07-20T22:39:09.407Z,8.17
2018-07-20T22:41:38.872Z,7.53
2018-07-20T22:44:08.504Z,7.27
2018-07-20T22:46:38.182Z,7.97
2018-07-20T22:49:07.659Z,8.10
2018-07-20T22:51:37.169Z,8.63
2018-07-20T22:54:06.717Z,8.40
2018-07-20T22:56:36.308Z,8.67
2018-07-20T22:59:05.996Z,8.63
2018-07-20T23:01:35.756Z,7.90
2018-07-20T23:04:05.128Z,8.03
2018-07-20T23:06:34.716Z,8.33
2018-07-20T23:09:05.885Z,8.00
2018-07-20T23:11:35.299Z,8.43
2018-07-20T23:14:05.012Z,8.70
2018-07-20T23:16:34.448Z,9.00
2018-07-20T23:19:03.847Z,8.50
2018-07-20T23:21:33.454Z,8.27
2018-07-20T23:24:03.215Z,8.90
2018-07-20T23:26:32.751Z,8.57
2018-07-20T23:29:02.389Z,7.70
2018-07-20T23:31:31.923Z,8.83
2018-07-20T23:34:01.521Z,8.47
2018-07-20T23:36:31.211Z,8.70
2018-07-20T23:39:00.776Z,8.43
2018-07-20T23:41:30.349Z,8.50
2018-07-20T23:43:59.987Z,8.50
2018-07-20T23:46:29.529Z,8.00
2018-07-20T23:48:59.231Z,8.30
2018-07-20T23:51:29.071Z,8.20
2018-07-20T23:53:58.554Z,8.50
2018-07-20T23:56:28.258Z,8.80
2018-07-20T23:58:57.725Z,8.03
